Time;durP1;ratioP1;P1;durP2;ratioP2;P2;SDS_P1;SDS_P2;PMS_P1;PMS_P2;Temp;Humidity;BMP_temperature;BMP_pressure;BME280_temperature;BME280_humidity;BME280_pressure;Samples;Min_cycle;Max_cycle;Signal;HPM_P1;HPM_P2
2023/10/30 00:01:47;;;;;;;0.10;0.10;;;11.20;99.90;;;;;;4989968;28;20058;-65
2023/10/30 00:04:13;;;;;;;0.30;0.30;;;11.20;99.90;;;;;;4988237;28;20053;-65
2023/10/30 00:06:39;;;;;;;0.00;0.00;;;11.20;99.90;;;;;;4985033;28;20435;-65
2023/10/30 00:09:05;;;;;;;0.00;0.00;;;11.10;99.90;;;;;;4978925;28;20053;-65
2023/10/30 00:11:30;;;;;;;0.10;0.10;;;11.10;99.90;;;;;;4991314;28;20047;-66
2023/10/30 00:13:56;;;;;;;0.10;0.10;;;11.10;99.90;;;;;;4983118;28;20049;-65
2023/10/30 00:16:21;;;;;;;0.10;0.10;;;11.20;99.90;;;;;;4989713;28;20143;-66
2023/10/30 00:18:47;;;;;;;0.10;0.10;;;11.10;99.90;;;;;;4992252;28;20657;-65
2023/10/30 00:21:13;;;;;;;0.20;0.20;;;11.10;99.90;;;;;;4984655;28;20051;-65
2023/10/30 00:23:39;;;;;;;0.10;0.10;;;11.10;99.90;;;;;;4988528;28;20073;-65
2023/10/30 00:26:05;;;;;;;0.00;0.00;;;11.10;99.90;;;;;;4989343;28;20402;-66
2023/10/30 00:28:33;;;;;;;0.10;0.10;;;11.10;99.90;;;;;;4988780;28;20042;-66
2023/10/30 00:30:59;;;;;;;0.00;0.00;;;11.10;99.90;;;;;;4982108;28;20050;-66
2023/10/30 00:33:25;;;;;;;3.92;2.78;;;11.10;99.90;;;;;;4982552;28;20109;-65
2023/10/30 00:35:50;;;;;;;0.10;0.10;;;11.10;99.90;;;;;;4985929;28;20043;-66
2023/10/30 00:38:16;;;;;;;0.38;0.38;;;11.10;99.90;;;;;;4985165;28;20074;-66
2023/10/30 00:40:42;;;;;;;0.10;0.10;;;11.00;99.90;;;;;;4990638;28;20097;-65
2023/10/30 00:43:07;;;;;;;0.73;0.57;;;11.00;99.90;;;;;;4989970;28;20042;-65
2023/10/30 00:45:33;;;;;;;0.10;0.10;;;11.00;99.90;;;;;;4978532;28;20053;-66
2023/10/30 00:47:58;;;;;;;0.10;0.10;;;11.00;99.90;;;;;;4989782;28;20502;-65
2023/10/30 00:50:24;;;;;;;0.00;0.00;;;11.00;99.90;;;;;;4986899;28;20049;-66
2023/10/30 00:52:50;;;;;;;0.08;0.08;;;11.00;99.90;;;;;;4983953;28;20403;-66
2023/10/30 00:55:16;;;;;;;0.10;0.10;;;10.90;99.90;;;;;;4987752;28;20042;-66
2023/10/30 00:57:41;;;;;;;3.75;1.13;;;10.90;99.90;;;;;;4990247;28;20050;-65
2023/10/30 01:00:07;;;;;;;0.10;0.10;;;10.90;99.90;;;;;;4989089;28;20061;-65
2023/10/30 01:02:33;;;;;;;0.10;0.10;;;10.90;99.90;;;;;;4981033;28;20403;-66
2023/10/30 01:04:58;;;;;;;0.10;0.10;;;10.90;99.90;;;;;;4983735;28;20049;-66
2023/10/30 01:07:24;;;;;;;0.00;0.00;;;10.90;99.90;;;;;;4989345;28;20042;-65
2023/10/30 01:09:50;;;;;;;0.00;0.00;;;10.90;99.90;;;;;;4985853;28;20042;-65
2023/10/30 01:12:16;;;;;;;0.10;0.10;;;10.90;99.90;;;;;;4988808;28;20517;-65
2023/10/30 01:14:42;;;;;;;0.10;0.10;;;10.90;99.90;;;;;;4987085;28;20046;-66
2023/10/30 01:17:07;;;;;;;0.10;0.10;;;10.90;99.90;;;;;;4979334;28;20061;-66
2023/10/30 01:19:33;;;;;;;1.23;1.17;;;10.90;99.90;;;;;;4988735;28;20050;-65
2023/10/30 01:21:59;;;;;;;0.00;0.00;;;10.90;99.90;;;;;;4983346;28;20050;-65
2023/10/30 01:24:25;;;;;;;0.00;0.00;;;10.90;99.90;;;;;;4983941;28;20039;-66
2023/10/30 01:26:50;;;;;;;0.47;0.47;;;10.90;99.90;;;;;;4982911;28;20049;-65
2023/10/30 01:29:16;;;;;;;0.10;0.10;;;11.00;99.90;;;;;;4986214;28;20177;-66
2023/10/30 01:31:42;;;;;;;0.25;0.25;;;11.00;99.90;;;;;;4987963;28;20058;-66
2023/10/30 01:34:07;;;;;;;0.10;0.10;;;10.90;99.90;;;;;;4980144;28;20397;-66
2023/10/30 01:36:33;;;;;;;0.08;0.08;;;10.90;99.90;;;;;;4987161;28;20057;-65
2023/10/30 01:38:59;;;;;;;0.00;0.00;;;11.00;99.90;;;;;;4977968;28;20046;-66
2023/10/30 01:41:25;;;;;;;0.20;0.20;;;10.90;99.90;;;;;;4984639;28;20053;-66
2023/10/30 01:43:50;;;;;;;0.00;0.00;;;10.90;99.90;;;;;;4985499;28;20402;-66
2023/10/30 01:46:16;;;;;;;0.10;0.10;;;10.90;99.90;;;;;;4982412;28;20125;-67
2023/10/30 01:48:42;;;;;;;0.10;0.10;;;10.90;99.90;;;;;;4989969;28;20038;-66
2023/10/30 01:51:09;;;;;;;0.00;0.00;;;10.90;99.90;;;;;;4989456;28;20513;-66
2023/10/30 01:53:36;;;;;;;0.00;0.00;;;10.90;99.90;;;;;;4981652;28;20054;-66
2023/10/30 01:56:03;;;;;;;0.00;0.00;;;10.80;99.90;;;;;;4989392;28;20074;-66
2023/10/30 01:58:30;;;;;;;0.10;0.10;;;10.90;99.90;;;;;;4984995;28;20113;-66
2023/10/30 02:00:56;;;;;;;0.40;0.40;;;10.90;99.90;;;;;;4979284;28;20053;-66
2023/10/30 02:03:22;;;;;;;0.00;0.00;;;10.90;99.90;;;;;;4985665;28;20061;-66
2023/10/30 02:05:47;;;;;;;0.10;0.10;;;10.80;99.90;;;;;;4989713;28;20042;-66
2023/10/30 02:08:14;;;;;;;0.30;0.30;;;10.80;99.90;;;;;;4982485;28;20101;-66
2023/10/30 02:10:40;;;;;;;0.05;0.05;;;10.80;99.90;;;;;;4987513;28;20093;-66
2023/10/30 02:13:09;;;;;;;0.00;0.00;;;10.80;99.90;;;;;;4980728;28;20395;-66
2023/10/30 02:15:35;;;;;;;0.15;0.15;;;10.80;99.90;;;;;;4980183;28;20105;-66
2023/10/30 02:18:01;;;;;;;0.05;0.05;;;10.70;99.90;;;;;;4982735;28;20433;-66
2023/10/30 02:20:27;;;;;;;0.10;0.10;;;10.70;99.90;;;;;;4989070;28;20102;-66
2023/10/30 02:22:53;;;;;;;0.10;0.10;;;10.60;99.90;;;;;;4990106;28;20050;-66
2023/10/30 02:25:20;;;;;;;2.83;1.30;;;10.60;99.90;;;;;;4982384;28;20049;-66
2023/10/30 02:27:45;;;;;;;0.10;0.10;;;10.60;99.90;;;;;;4987094;28;20078;-66
2023/10/30 02:30:11;;;;;;;0.00;0.00;;;10.60;99.90;;;;;;4993238;28;20042;-66
2023/10/30 02:32:42;;;;;;;0.00;0.00;;;10.60;99.90;;;;;;4990224;28;20046;-66
2023/10/30 02:35:10;;;;;;;0.98;0.90;;;10.60;99.90;;;;;;4988476;28;20145;-66
2023/10/30 02:37:36;;;;;;;0.10;0.10;;;10.60;99.90;;;;;;4993507;28;20394;-66
2023/10/30 02:40:01;;;;;;;0.00;0.00;;;10.60;99.90;;;;;;4984847;28;20043;-66
2023/10/30 02:42:27;;;;;;;0.00;0.00;;;10.60;99.90;;;;;;4983619;28;20483;-66
2023/10/30 02:44:52;;;;;;;0.10;0.10;;;10.50;99.90;;;;;;4983906;28;20088;-66
2023/10/30 02:47:19;;;;;;;0.10;0.10;;;10.50;99.90;;;;;;4988784;28;20064;-66
2023/10/30 02:49:45;;;;;;;0.00;0.00;;;10.50;99.90;;;;;;4998904;28;20094;-66
2023/10/30 02:52:10;;;;;;;0.20;0.20;;;10.50;99.90;;;;;;4988134;28;20068;-66
2023/10/30 02:54:36;;;;;;;0.08;0.08;;;10.50;99.90;;;;;;4987508;28;20047;-66
2023/10/30 02:57:02;;;;;;;0.10;0.10;;;10.50;99.90;;;;;;4980549;28;20038;-66
2023/10/30 02:59:27;;;;;;;0.10;0.10;;;10.40;99.90;;;;;;4993209;28;20077;-66
2023/10/30 03:01:53;;;;;;;0.08;0.08;;;10.40;99.90;;;;;;4989258;28;20122;-66
2023/10/30 03:04:18;;;;;;;1.90;1.33;;;10.40;99.90;;;;;;4982500;28;20053;-67
2023/10/30 03:06:44;;;;;;;0.10;0.10;;;10.40;99.90;;;;;;4989960;28;20390;-66
2023/10/30 03:09:10;;;;;;;0.10;0.10;;;10.40;99.90;;;;;;4993162;28;20045;-66
2023/10/30 03:11:35;;;;;;;0.00;0.00;;;10.40;99.90;;;;;;4988117;28;20039;-66
2023/10/30 03:14:01;;;;;;;0.10;0.10;;;10.50;99.90;;;;;;4982495;28;20042;-66
2023/10/30 03:16:26;;;;;;;0.00;0.00;;;10.40;99.90;;;;;;4990878;28;20046;-66
2023/10/30 03:18:52;;;;;;;0.08;0.08;;;10.40;99.90;;;;;;4991231;28;20069;-66
2023/10/30 03:21:19;;;;;;;0.10;0.10;;;10.40;99.90;;;;;;4978868;28;20154;-66
2023/10/30 03:23:44;;;;;;;0.10;0.10;;;10.40;99.90;;;;;;4988893;28;20042;-66
2023/10/30 03:26:10;;;;;;;0.35;0.30;;;10.50;99.90;;;;;;4990650;28;20039;-66
2023/10/30 03:28:35;;;;;;;0.10;0.10;;;10.40;99.90;;;;;;4987121;28;20061;-66
2023/10/30 03:31:09;;;;;;;5.18;1.13;;;10.50;99.90;;;;;;4987006;28;20580;-66
2023/10/30 03:33:35;;;;;;;0.00;0.00;;;10.50;99.90;;;;;;4992306;28;20077;-66
2023/10/30 03:36:02;;;;;;;0.00;0.00;;;10.50;99.90;;;;;;4981945;28;20513;-66
2023/10/30 03:38:28;;;;;;;0.00;0.00;;;10.50;99.90;;;;;;4986861;28;20166;-66
2023/10/30 03:40:53;;;;;;;1.38;1.00;;;10.50;99.90;;;;;;4983860;28;20112;-66
2023/10/30 03:43:19;;;;;;;0.22;0.22;;;10.40;99.90;;;;;;4988950;28;20057;-66
2023/10/30 03:45:44;;;;;;;0.10;0.10;;;10.50;99.90;;;;;;4987202;28;20042;-66
2023/10/30 03:48:10;;;;;;;0.10;0.10;;;10.50;99.90;;;;;;4984407;28;20101;-66
2023/10/30 03:50:36;;;;;;;0.00;0.00;;;10.50;99.90;;;;;;4990477;28;20364;-65
2023/10/30 03:53:01;;;;;;;0.10;0.10;;;10.50;99.90;;;;;;4982215;28;20055;-65
2023/10/30 03:55:27;;;;;;;0.10;0.10;;;10.50;99.90;;;;;;4988787;28;20490;-65
2023/10/30 03:57:52;;;;;;;0.10;0.10;;;10.50;99.90;;;;;;4987893;28;20050;-65
2023/10/30 04:00:18;;;;;;;1.30;1.20;;;10.50;99.90;;;;;;4982027;28;20418;-65
2023/10/30 04:02:44;;;;;;;0.10;0.10;;;10.50;99.90;;;;;;4986209;28;20065;-65
2023/10/30 04:05:09;;;;;;;0.10;0.10;;;10.50;99.90;;;;;;4991448;28;20046;-65
2023/10/30 04:07:35;;;;;;;0.10;0.10;;;10.50;99.90;;;;;;5000066;28;20081;-65
2023/10/30 04:10:01;;;;;;;0.10;0.10;;;10.50;99.90;;;;;;4988776;28;20497;-66
2023/10/30 04:12:26;;;;;;;0.20;0.20;;;10.60;99.90;;;;;;4991234;28;20042;-65
2023/10/30 04:14:52;;;;;;;2.97;1.30;;;10.60;99.90;;;;;;4981239;28;20046;-66
2023/10/30 04:17:18;;;;;;;2.92;1.10;;;10.60;99.90;;;;;;4982094;28;20287;-66
2023/10/30 04:19:43;;;;;;;0.00;0.00;;;10.60;99.90;;;;;;4984326;28;20058;-65
2023/10/30 04:22:09;;;;;;;0.43;0.43;;;10.60;99.90;;;;;;4983313;28;20129;-66
2023/10/30 04:24:34;;;;;;;0.68;0.50;;;10.60;99.90;;;;;;4984880;28;20125;-66
2023/10/30 04:27:00;;;;;;;0.00;0.00;;;10.60;99.90;;;;;;4986223;28;20038;-65
2023/10/30 04:29:26;;;;;;;13.32;2.20;;;10.60;99.90;;;;;;4985539;28;21342;-65
2023/10/30 04:31:52;;;;;;;0.28;0.28;;;10.60;99.90;;;;;;4981565;28;20077;-65
2023/10/30 04:34:19;;;;;;;0.85;0.73;;;10.50;99.90;;;;;;4985033;28;20050;-65
2023/10/30 04:36:45;;;;;;;0.20;0.20;;;10.60;99.90;;;;;;4988875;28;20053;-65
2023/10/30 04:39:13;;;;;;;0.10;0.10;;;10.50;99.90;;;;;;4989538;28;20042;-65
2023/10/30 04:41:39;;;;;;;0.20;0.20;;;10.50;99.90;;;;;;4981707;28;20042;-65
2023/10/30 04:44:04;;;;;;;0.75;0.75;;;10.60;99.90;;;;;;4989797;28;20097;-65
2023/10/30 04:46:30;;;;;;;0.00;0.00;;;10.50;99.90;;;;;;4982580;28;20483;-65
2023/10/30 04:48:56;;;;;;;0.00;0.00;;;10.60;99.90;;;;;;5003887;28;20125;-65
2023/10/30 04:51:21;;;;;;;0.90;0.90;;;10.50;99.90;;;;;;4981831;28;20051;-66
2023/10/30 04:53:47;;;;;;;0.10;0.10;;;10.50;99.90;;;;;;4989460;28;20045;-66
2023/10/30 04:56:12;;;;;;;0.25;0.25;;;10.50;99.90;;;;;;4990144;28;20038;-66
2023/10/30 04:58:38;;;;;;;0.20;0.20;;;10.50;99.90;;;;;;4975756;28;20062;-66
2023/10/30 05:01:10;;;;;;;0.00;0.00;;;10.50;99.90;;;;;;4989604;28;20086;-66
2023/10/30 05:03:39;;;;;;;0.10;0.10;;;10.50;99.90;;;;;;4986204;28;20042;-66
2023/10/30 05:06:05;;;;;;;0.30;0.30;;;10.50;99.90;;;;;;4987362;28;20046;-66
2023/10/30 05:08:32;;;;;;;0.08;0.08;;;10.50;99.90;;;;;;4984529;28;20084;-66
2023/10/30 05:10:59;;;;;;;1.45;1.08;;;10.40;99.90;;;;;;4990490;28;20108;-65
2023/10/30 05:13:25;;;;;;;0.00;0.00;;;10.40;99.90;;;;;;4983227;28;20046;-66
2023/10/30 05:15:50;;;;;;;0.00;0.00;;;10.40;99.90;;;;;;4986917;28;20564;-65
2023/10/30 05:18:22;;;;;;;0.10;0.10;;;10.40;99.90;;;;;;4977141;28;20046;-66
2023/10/30 05:20:47;;;;;;;0.00;0.00;;;10.40;99.90;;;;;;4982057;28;20523;-66
2023/10/30 05:23:13;;;;;;;32.15;1.02;;;10.30;99.90;;;;;;4981493;28;20070;-66
2023/10/30 05:25:39;;;;;;;0.00;0.00;;;10.30;99.90;;;;;;4990056;28;20132;-65
2023/10/30 05:28:04;;;;;;;0.00;0.00;;;10.30;99.90;;;;;;4985424;28;20039;-65
2023/10/30 05:30:30;;;;;;;0.10;0.10;;;10.30;99.90;;;;;;4987111;28;20050;-66
2023/10/30 05:32:56;;;;;;;0.25;0.25;;;10.20;99.90;;;;;;4985929;28;20470;-66
2023/10/30 05:35:22;;;;;;;0.10;0.10;;;10.30;99.90;;;;;;4981248;28;20146;-66
2023/10/30 05:37:47;;;;;;;0.10;0.10;;;10.20;99.90;;;;;;4989199;28;20142;-66
2023/10/30 05:40:13;;;;;;;0.38;0.38;;;10.20;99.90;;;;;;4989007;28;20057;-66
2023/10/30 05:42:38;;;;;;;0.10;0.10;;;10.20;99.90;;;;;;4982189;28;20124;-66
2023/10/30 05:45:05;;;;;;;0.10;0.10;;;10.20;99.90;;;;;;4981536;28;20046;-66
2023/10/30 05:47:31;;;;;;;0.40;0.40;;;10.20;99.90;;;;;;4978152;28;20114;-65
2023/10/30 05:49:57;;;;;;;0.10;0.10;;;10.20;99.90;;;;;;4990287;28;20557;-66
2023/10/30 05:52:23;;;;;;;0.10;0.10;;;10.20;99.90;;;;;;4983187;28;20046;-66
2023/10/30 05:54:48;;;;;;;2.30;1.85;;;10.20;99.90;;;;;;4987996;28;20061;-66
2023/10/30 05:57:15;;;;;;;0.10;0.10;;;10.10;99.90;;;;;;4984924;28;20042;-66
2023/10/30 05:59:41;;;;;;;0.10;0.10;;;10.10;99.90;;;;;;4985532;28;20051;-66
2023/10/30 06:02:06;;;;;;;0.00;0.00;;;10.10;99.90;;;;;;4979408;28;20182;-66
2023/10/30 06:04:32;;;;;;;0.10;0.10;;;10.10;99.90;;;;;;4985989;28;20086;-66
2023/10/30 06:06:58;;;;;;;0.20;0.20;;;10.10;99.90;;;;;;4987214;28;20039;-66
2023/10/30 06:09:25;;;;;;;0.22;0.22;;;10.00;99.90;;;;;;4984387;28;20081;-66
2023/10/30 06:11:51;;;;;;;0.20;0.20;;;10.00;99.90;;;;;;4978187;28;20046;-66
2023/10/30 06:14:17;;;;;;;0.10;0.10;;;10.00;99.90;;;;;;4982333;28;20050;-66
2023/10/30 06:16:43;;;;;;;19.00;5.40;;;10.00;99.90;;;;;;4983753;28;20047;-66
2023/10/30 06:19:10;;;;;;;0.08;0.08;;;10.00;99.90;;;;;;4984030;28;20811;-66
2023/10/30 06:21:36;;;;;;;0.10;0.10;;;10.00;99.90;;;;;;4981972;28;20375;-66
2023/10/30 06:24:01;;;;;;;0.00;0.00;;;10.00;99.90;;;;;;4975602;28;20402;-66
2023/10/30 06:26:27;;;;;;;1.10;1.00;;;10.00;99.90;;;;;;4985255;28;20054;-66
2023/10/30 06:28:52;;;;;;;0.00;0.00;;;10.00;99.90;;;;;;4990273;28;20035;-66
2023/10/30 06:31:19;;;;;;;0.00;0.00;;;10.00;99.90;;;;;;4985311;28;20700;-65
2023/10/30 06:33:46;;;;;;;0.10;0.10;;;10.00;99.90;;;;;;4982963;28;20042;-65
2023/10/30 06:36:11;;;;;;;0.10;0.10;;;10.00;99.90;;;;;;4983008;28;20042;-66
2023/10/30 06:38:37;;;;;;;0.10;0.10;;;10.00;99.90;;;;;;4984555;28;20819;-65
2023/10/30 06:41:04;;;;;;;0.10;0.10;;;10.00;99.90;;;;;;5002661;28;20054;-66
2023/10/30 06:43:32;;;;;;;0.05;0.05;;;10.00;99.90;;;;;;4979089;28;20051;-66
2023/10/30 06:46:02;;;;;;;0.05;0.05;;;10.10;99.90;;;;;;4985286;28;20050;-66
2023/10/30 06:48:27;;;;;;;0.00;0.00;;;10.10;99.90;;;;;;4989244;28;20046;-66
2023/10/30 06:50:54;;;;;;;0.10;0.10;;;10.10;99.90;;;;;;4989798;28;20034;-66
2023/10/30 06:53:20;;;;;;;0.40;0.40;;;10.10;99.90;;;;;;4978723;28;20043;-66
2023/10/30 06:55:45;;;;;;;0.63;0.63;;;10.10;99.90;;;;;;4985067;28;20449;-66
2023/10/30 06:58:11;;;;;;;0.10;0.10;;;10.10;99.90;;;;;;4979421;28;20387;-66
2023/10/30 07:00:37;;;;;;;0.10;0.10;;;10.20;99.90;;;;;;4985150;28;20297;-65
2023/10/30 07:03:03;;;;;;;0.10;0.10;;;10.30;99.90;;;;;;4983532;28;20139;-66
2023/10/30 07:05:28;;;;;;;0.00;0.00;;;10.30;99.90;;;;;;4982693;28;20050;-66
2023/10/30 07:07:54;;;;;;;0.10;0.10;;;10.30;99.90;;;;;;4986388;28;20132;-66
2023/10/30 07:10:20;;;;;;;0.73;0.73;;;10.40;99.90;;;;;;4970544;28;20042;-66
2023/10/30 07:12:45;;;;;;;0.75;0.75;;;10.40;99.90;;;;;;4982666;28;20070;-65
2023/10/30 07:15:11;;;;;;;0.85;0.85;;;10.40;99.90;;;;;;4990388;28;20042;-65
2023/10/30 07:17:37;;;;;;;0.47;0.47;;;10.40;99.90;;;;;;4989224;28;20468;-66
2023/10/30 07:20:03;;;;;;;0.95;0.68;;;10.50;99.90;;;;;;4981470;28;20101;-66
2023/10/30 07:22:29;;;;;;;0.20;0.20;;;10.50;99.90;;;;;;4986676;28;20152;-66
2023/10/30 07:24:56;;;;;;;0.25;0.25;;;10.50;99.90;;;;;;4979622;28;20470;-66
2023/10/30 07:27:22;;;;;;;0.20;0.20;;;10.50;99.90;;;;;;4990731;28;20405;-66
2023/10/30 07:29:47;;;;;;;0.20;0.20;;;10.50;99.90;;;;;;4985489;28;20406;-66
2023/10/30 07:32:13;;;;;;;0.10;0.10;;;10.50;99.90;;;;;;4987044;28;20481;-65
2023/10/30 07:34:41;;;;;;;0.00;0.00;;;10.60;99.90;;;;;;4979336;28;20077;-66
2023/10/30 07:37:07;;;;;;;3.00;1.65;;;10.60;99.90;;;;;;4975994;28;20071;-65
2023/10/30 07:39:32;;;;;;;0.10;0.10;;;10.60;99.90;;;;;;4984015;28;20086;-66
2023/10/30 07:41:58;;;;;;;0.13;0.13;;;10.70;99.90;;;;;;4987515;28;20294;-65
2023/10/30 07:44:23;;;;;;;0.00;0.00;;;10.80;99.90;;;;;;4983697;28;20136;-65
2023/10/30 07:46:49;;;;;;;0.20;0.20;;;10.80;99.90;;;;;;4992903;28;20149;-66
2023/10/30 07:49:15;;;;;;;0.10;0.10;;;10.80;99.90;;;;;;5005808;28;20042;-66
2023/10/30 07:51:40;;;;;;;0.10;0.10;;;10.80;99.90;;;;;;4986197;28;20108;-65
2023/10/30 07:54:06;;;;;;;0.75;0.50;;;10.90;99.90;;;;;;4989084;28;20157;-66
2023/10/30 07:56:32;;;;;;;0.10;0.10;;;10.90;99.90;;;;;;4991147;28;20046;-66
2023/10/30 07:58:58;;;;;;;0.00;0.00;;;11.00;99.90;;;;;;4985600;28;20046;-66
2023/10/30 08:01:24;;;;;;;0.60;0.60;;;11.00;99.90;;;;;;4987833;28;20096;-66
2023/10/30 08:03:50;;;;;;;0.10;0.10;;;11.00;99.90;;;;;;4990492;28;20042;-66
2023/10/30 08:06:15;;;;;;;0.00;0.00;;;11.00;99.90;;;;;;4985077;28;20093;-66
2023/10/30 08:08:41;;;;;;;0.22;0.22;;;11.00;99.90;;;;;;4986328;28;20042;-66
2023/10/30 08:11:07;;;;;;;0.10;0.10;;;11.00;99.90;;;;;;4985559;28;20439;-66
2023/10/30 08:13:33;;;;;;;0.10;0.10;;;11.10;99.90;;;;;;4987220;28;20058;-66
2023/10/30 08:15:59;;;;;;;0.10;0.10;;;11.10;99.90;;;;;;4992702;28;20069;-66
2023/10/30 08:18:25;;;;;;;0.10;0.10;;;11.10;99.90;;;;;;4985305;28;20470;-66
2023/10/30 08:20:51;;;;;;;4.28;1.95;;;11.10;99.90;;;;;;4981460;28;20456;-66
2023/10/30 08:23:17;;;;;;;1.08;0.85;;;11.10;99.90;;;;;;4986277;28;20130;-66
2023/10/30 08:25:43;;;;;;;0.15;0.15;;;11.10;99.90;;;;;;4980118;28;20034;-66
2023/10/30 08:28:08;;;;;;;1.45;1.05;;;11.20;99.90;;;;;;4985247;28;20161;-66
2023/10/30 08:30:34;;;;;;;0.17;0.17;;;11.20;99.90;;;;;;4984185;28;20149;-66
2023/10/30 08:33:03;;;;;;;0.25;0.25;;;11.30;99.90;;;;;;4990370;28;20547;-66
2023/10/30 08:35:30;;;;;;;0.10;0.10;;;11.40;99.90;;;;;;4990103;28;20050;-66
2023/10/30 08:37:57;;;;;;;0.10;0.10;;;11.40;99.90;;;;;;4985867;28;20043;-66
2023/10/30 08:40:24;;;;;;;0.10;0.10;;;11.40;99.90;;;;;;4987407;28;20042;-66
2023/10/30 08:42:49;;;;;;;0.10;0.10;;;11.50;99.90;;;;;;4992136;28;20042;-66
2023/10/30 08:45:15;;;;;;;0.10;0.10;;;11.60;99.90;;;;;;4983804;28;20407;-66
2023/10/30 08:47:41;;;;;;;0.40;0.40;;;11.60;99.90;;;;;;4985632;28;20093;-66
2023/10/30 08:50:07;;;;;;;0.10;0.10;;;11.60;99.90;;;;;;4983123;28;20038;-66
2023/10/30 08:52:33;;;;;;;0.10;0.10;;;11.60;99.90;;;;;;4989715;28;20046;-66
2023/10/30 08:54:59;;;;;;;0.10;0.10;;;11.60;99.90;;;;;;4990542;28;20058;-66
2023/10/30 08:57:24;;;;;;;0.10;0.10;;;11.60;99.90;;;;;;4984483;28;20093;-66
2023/10/30 08:59:50;;;;;;;0.65;0.65;;;11.70;99.90;;;;;;4980898;28;20050;-66
2023/10/30 09:02:16;;;;;;;0.10;0.10;;;11.70;99.90;;;;;;4980896;28;20050;-66
2023/10/30 09:04:41;;;;;;;0.15;0.15;;;11.80;99.90;;;;;;4987572;28;20039;-66
2023/10/30 09:07:07;;;;;;;0.35;0.35;;;11.90;99.90;;;;;;4991200;28;20046;-66
2023/10/30 09:09:33;;;;;;;0.52;0.52;;;12.00;99.90;;;;;;4981074;28;20078;-66
2023/10/30 09:11:58;;;;;;;0.20;0.20;;;12.10;99.90;;;;;;4983026;28;20449;-66
2023/10/30 09:14:24;;;;;;;0.10;0.10;;;12.10;99.90;;;;;;4986321;28;20106;-66
2023/10/30 09:16:50;;;;;;;0.05;0.05;;;12.20;99.90;;;;;;4981593;28;20034;-65
2023/10/30 09:19:16;;;;;;;0.10;0.10;;;12.30;99.90;;;;;;4989530;28;20517;-66
2023/10/30 09:21:41;;;;;;;0.10;0.10;;;12.30;99.90;;;;;;4977084;28;20042;-66
2023/10/30 09:24:07;;;;;;;0.47;0.47;;;12.40;99.90;;;;;;4987543;28;20133;-66
2023/10/30 09:26:33;;;;;;;0.10;0.10;;;12.40;99.90;;;;;;4989103;28;20054;-66
2023/10/30 09:28:58;;;;;;;0.30;0.30;;;12.40;99.90;;;;;;4985762;28;20593;-66
2023/10/30 09:31:24;;;;;;;0.22;0.22;;;12.40;99.90;;;;;;4989579;28;20042;-66
2023/10/30 09:33:49;;;;;;;0.00;0.00;;;12.40;99.90;;;;;;4989829;28;20038;-66
2023/10/30 09:36:15;;;;;;;0.35;0.35;;;12.40;99.90;;;;;;4987266;28;20043;-66
2023/10/30 09:38:44;;;;;;;0.15;0.15;;;12.80;99.90;;;;;;4982622;28;20725;-66
2023/10/30 09:41:12;;;;;;;0.77;0.77;;;13.00;99.90;;;;;;4991062;28;20046;-66
2023/10/30 09:43:38;;;;;;;0.20;0.20;;;13.30;99.90;;;;;;4982894;28;20395;-66
2023/10/30 09:46:07;;;;;;;0.00;0.00;;;13.60;99.90;;;;;;4985646;28;20172;-66
2023/10/30 09:48:36;;;;;;;0.00;0.00;;;13.70;99.90;;;;;;4988984;28;20038;-67
2023/10/30 09:51:03;;;;;;;0.10;0.10;;;13.70;99.90;;;;;;4979072;28;20050;-67
2023/10/30 09:53:29;;;;;;;2.83;2.22;;;13.60;99.90;;;;;;4986703;28;20103;-66
2023/10/30 09:55:56;;;;;;;0.00;0.00;;;13.80;99.90;;;;;;4985431;28;20057;-66
2023/10/30 09:58:23;;;;;;;0.10;0.10;;;13.90;99.90;;;;;;4977065;28;20059;-66
2023/10/30 10:00:49;;;;;;;0.20;0.20;;;13.80;99.90;;;;;;4991121;28;20062;-66
2023/10/30 10:03:15;;;;;;;0.10;0.10;;;13.80;99.90;;;;;;4978937;28;20076;-67
2023/10/30 10:05:40;;;;;;;0.10;0.10;;;13.80;99.90;;;;;;4978573;28;20042;-67
2023/10/30 10:08:10;;;;;;;1.15;1.10;;;13.70;99.90;;;;;;4989101;28;20104;-66
2023/10/30 10:10:57;;;;;;;1.08;0.98;;;13.60;99.90;;;;;;4982770;28;20053;-66
2023/10/30 10:13:29;;;;;;;0.00;0.00;;;13.50;99.90;;;;;;4987238;28;20108;-66
2023/10/30 10:15:55;;;;;;;4.30;1.30;;;13.50;99.90;;;;;;4985098;28;20502;-66
2023/10/30 10:18:32;;;;;;;0.05;0.05;;;13.50;99.90;;;;;;4987607;28;20297;-66
2023/10/30 10:21:00;;;;;;;0.10;0.10;;;13.50;99.90;;;;;;4982715;28;20065;-66
2023/10/30 10:23:33;;;;;;;0.10;0.10;;;13.60;99.90;;;;;;4989767;28;20139;-66
2023/10/30 10:26:00;;;;;;;0.00;0.00;;;13.50;99.90;;;;;;4988521;28;20279;-66
2023/10/30 10:28:26;;;;;;;1.75;0.45;;;13.40;99.90;;;;;;4986570;28;20042;-66
2023/10/30 10:30:53;;;;;;;0.10;0.10;;;13.40;99.90;;;;;;4973537;28;20043;-66
2023/10/30 10:33:24;;;;;;;0.10;0.10;;;13.30;99.90;;;;;;4982317;28;20043;-66
2023/10/30 10:36:01;;;;;;;0.22;0.22;;;13.30;99.90;;;;;;4980232;28;20058;-66
2023/10/30 10:38:27;;;;;;;1.95;1.65;;;13.30;99.90;;;;;;4989547;28;20053;-66
2023/10/30 10:40:54;;;;;;;3.60;1.45;;;13.30;99.90;;;;;;4986807;28;20092;-66
2023/10/30 10:43:21;;;;;;;0.10;0.10;;;13.30;99.90;;;;;;4979636;28;20035;-66
2023/10/30 10:45:52;;;;;;;0.45;0.45;;;13.30;99.90;;;;;;4983037;28;20039;-66
2023/10/30 10:48:18;;;;;;;0.10;0.10;;;13.20;99.90;;;;;;4982745;28;20065;-66
2023/10/30 10:50:46;;;;;;;0.10;0.10;;;13.30;99.90;;;;;;4992559;28;20052;-66
2023/10/30 10:53:12;;;;;;;3.20;1.40;;;13.30;99.90;;;;;;4993250;28;20035;-67
2023/10/30 10:55:49;;;;;;;5.72;2.10;;;13.30;99.90;;;;;;4982484;28;20445;-66
2023/10/30 10:58:18;;;;;;;0.15;0.15;;;13.40;99.90;;;;;;4983595;28;20606;-66
2023/10/30 11:00:53;;;;;;;5.47;1.50;;;13.40;99.90;;;;;;4983681;28;20062;-66
2023/10/30 11:03:21;;;;;;;0.00;0.00;;;13.40;99.90;;;;;;4983607;28;20222;-66
2023/10/30 11:05:51;;;;;;;0.10;0.10;;;13.40;99.90;;;;;;4979898;28;20062;-66
2023/10/30 11:08:48;;;;;;;0.00;0.00;;;13.50;99.90;;;;;;4988278;28;20046;-66
2023/10/30 11:11:35;;;;;;;0.10;0.10;;;13.50;99.90;;;;;;4992103;28;20050;-66
2023/10/30 11:14:34;;;;;;;1.25;0.82;;;13.60;99.90;;;;;;4985403;28;20399;-66
2023/10/30 11:17:01;;;;;;;0.90;0.90;;;13.70;99.90;;;;;;4987086;28;20050;-66
2023/10/30 11:19:32;;;;;;;0.20;0.20;;;13.90;99.90;;;;;;4984509;28;20390;-66
2023/10/30 11:22:01;;;;;;;0.75;0.75;;;14.00;99.90;;;;;;4986257;28;20054;-66
2023/10/30 11:24:40;;;;;;;0.10;0.10;;;14.20;99.90;;;;;;4991276;28;20387;-66
2023/10/30 11:27:25;;;;;;;0.05;0.05;;;14.40;99.90;;;;;;4982564;28;20108;-66
2023/10/30 11:30:03;;;;;;;0.10;0.10;;;14.60;99.90;;;;;;4990935;28;20489;-65
2023/10/30 11:32:45;;;;;;;3.13;1.48;;;14.70;99.90;;;;;;4991026;28;20065;-66
2023/10/30 11:35:11;;;;;;;0.38;0.38;;;14.80;99.90;;;;;;4983556;28;20406;-66
2023/10/30 11:37:37;;;;;;;0.00;0.00;;;15.00;99.90;;;;;;4988545;28;20050;-66
2023/10/30 11:40:07;;;;;;;0.00;0.00;;;15.30;99.90;;;;;;4991549;28;20052;-66
2023/10/30 11:42:34;;;;;;;0.68;0.68;;;15.70;99.90;;;;;;4977517;28;20059;-66
2023/10/30 11:45:17;;;;;;;0.00;0.00;;;15.60;99.90;;;;;;4990865;28;20108;-66
2023/10/30 11:47:45;;;;;;;1.40;0.80;;;15.60;99.90;;;;;;4991781;28;20062;-66
2023/10/30 11:50:11;;;;;;;0.10;0.10;;;15.70;99.90;;;;;;4986229;28;21156;-66
2023/10/30 11:52:40;;;;;;;0.30;0.30;;;15.80;99.90;;;;;;4987879;28;20058;-66
2023/10/30 11:55:07;;;;;;;0.10;0.10;;;16.10;99.90;;;;;;4992718;28;20065;-65
2023/10/30 11:57:33;;;;;;;0.15;0.15;;;16.20;99.90;;;;;;4978950;28;20047;-66
2023/10/30 12:00:00;;;;;;;0.55;0.55;;;16.00;99.90;;;;;;4990003;28;20524;-66
2023/10/30 12:02:26;;;;;;;0.10;0.10;;;16.00;99.90;;;;;;4992169;28;20042;-66
2023/10/30 12:04:52;;;;;;;1.45;1.05;;;15.70;99.90;;;;;;4983967;28;20483;-66
2023/10/30 12:07:17;;;;;;;0.50;0.50;;;15.60;99.90;;;;;;4984489;28;20068;-66
2023/10/30 12:09:43;;;;;;;0.10;0.10;;;15.40;99.90;;;;;;4983280;28;20499;-66
2023/10/30 12:12:08;;;;;;;0.22;0.22;;;15.30;99.90;;;;;;4990396;28;20052;-65
2023/10/30 12:14:34;;;;;;;0.47;0.47;;;15.30;99.90;;;;;;4991774;28;20045;-65
2023/10/30 12:17:00;;;;;;;0.15;0.15;;;15.40;99.90;;;;;;4991511;28;20081;-65
2023/10/30 12:19:25;;;;;;;1.27;0.60;;;15.30;99.90;;;;;;4974665;28;20046;-66
2023/10/30 12:21:52;;;;;;;0.10;0.10;;;15.30;99.90;;;;;;4988040;28;20053;-65
2023/10/30 12:24:18;;;;;;;1.35;1.25;;;15.20;99.90;;;;;;4984411;28;20047;-66
2023/10/30 12:26:46;;;;;;;0.10;0.10;;;15.30;99.90;;;;;;4991879;28;20042;-66
2023/10/30 12:29:19;;;;;;;0.10;0.10;;;15.20;99.90;;;;;;4988094;28;20046;-65
2023/10/30 12:31:49;;;;;;;0.10;0.10;;;14.90;99.90;;;;;;4983812;28;20046;-65
2023/10/30 12:34:16;;;;;;;0.20;0.20;;;14.80;99.90;;;;;;4991277;28;20371;-66
2023/10/30 12:36:41;;;;;;;0.10;0.10;;;14.90;99.90;;;;;;4990832;28;20050;-66
2023/10/30 12:39:26;;;;;;;8.52;1.23;;;14.90;99.90;;;;;;4985189;28;20042;-66
2023/10/30 12:41:58;;;;;;;0.20;0.20;;;14.80;99.90;;;;;;4985109;28;20108;-66
2023/10/30 12:44:27;;;;;;;0.00;0.00;;;14.90;99.90;;;;;;4990192;28;20058;-66